LFMNLPFR

Guest
Details From LFMN - Nice Cote D Azur
To LPFR - Faro
Flight Number -
Tags Generated
Created
Modified
Stats Distance 800 nm / 1,481 km
Max Altitude 0 ft / 0 m
Waypoints 5
Social Downloads 0
Likes 0
Share VATSIM

Download

Looking for another format? Having issues loading an existing format? Contact us
Advertisement - Login to hide

Notes

Generated

Route

LFMN VIBOK INTAX GENRO LPFR

ID Type Via Altitude Latitude Longitude Leg Dist Tot Dist Heading (true) Name
O LFMN APT - 0 ft / 0 m 43.64661˚ 7.20258˚ - 0 nm - -
VIBOK FIX - 0 ft / 0 m 41.54686˚ 1.50185˚ 281 nm 281 nm 245° / 242° -
INTAX FIX - 0 ft / 0 m 39.58722˚ -2.93389˚ 234 nm 515 nm 241° / 238° -
GENRO FIX - 0 ft / 0 m 37.19306˚ -7.61472˚ 263 nm 778 nm 238° / 235° -
O LPFR APT - 0 ft / 0 m 37.01729˚ -7.98609˚ 20 nm 799 nm 239° / 239° -

Altitude Profile

Advertisement - Login to hide

Weather


0- 5 10 15 20 25 30 35+ Temperature / ° C

Clouds and Precipitation
Forecast for 2017-12-18 18:00 UTC. Updated a minute ago

Ground ~20,000 ft ~40,000 ft Winds

LFMN

Details ICAO LFMN (NCE)
Name Nice/Cote d'Azur
Region France
Timezone Unknown (UTC+0.0)
Stats Elevation 12 ft / 4 m (AMSL)
Location 43.657981° 7.215362°
Runways 2
Magnetic Variation 2.017° E

METAR

LFMN 181500Z 05013KT 9999 SCT040 SCT150 10/01 Q1019 NOSIG

Decode

TAF

TAF TAF LFMN 181400Z 1815/1921 09012KT 9999 FEW030 TEMPO 1818/1823 06020G30KT SCT040 SCT090 BECMG 1900/1902 34010KT BECMG 1911/1913 08012KT FEW030TCU BKN040 BECMG 1917/1919 34010KT TX11/1913Z TN04/1905Z

Decode

Departure Runways

ID Width Length Bearing (true) Bearing (mag) Surface Threshold Offset Overrun Length
04L 148 ft / 45 m 8,427 ft / 2,569 m 44.85° 42.83° Asphalt 0 ft / 0 m 131 ft / 40 m
04R 148 ft / 45 m 9,720 ft / 2,963 m 44.60° 42.58° Asphalt 0 ft / 0 m 427 ft / 130 m
22L 148 ft / 45 m 9,720 ft / 2,963 m 224.62° 222.60° Asphalt 0 ft / 0 m 525 ft / 160 m
22R 148 ft / 45 m 8,427 ft / 2,569 m 224.87° 222.85° Asphalt 0 ft / 0 m 492 ft / 150 m

LPFR

Details ICAO LPFR (FAO)
Name Faro
Region Portugal
Timezone Europe/Lisbon (UTC+0.0)
Stats Elevation 24 ft / 7 m (AMSL)
Location 37.015336° -7.972327°
Runways 1
Magnetic Variation 1.934° W

METAR

LPFR 181500Z 10010KT 050V130 CAVOK 16/06 Q1028

Decode

TAF

TAF LPFR 181100Z 1812/1912 08012KT CAVOK BECMG 1814/1817 02007KT BECMG 1900/1902 VRB03KT BECMG 1910/1912 09010KT

Decode

Destination Runways

ID Width Length Bearing (true) Bearing (mag) Surface Threshold Offset Overrun Length
10 148 ft / 45 m 8,148 ft / 2,484 m 100.08° 102.01° Asphalt 148 ft / 45 m 0 ft / 0 m
28 148 ft / 45 m 8,148 ft / 2,484 m 280.10° 282.03° Asphalt 148 ft / 45 m 0 ft / 0 m

Approach Navaids

Runway Type Ident Frequency Range Bearing (true) Bearing (mag) Slope Elevation
28 Localiser IIF 109.50 MHz 18 nm / 33 km 280.16° 282.10° - 24 ft / 7 m (AMSL)
28 Glidescope IIF 109.50 MHz 10 nm / 19 km 280.09° 282.02° 3.00° 24 ft / 7 m (AMSL)
28 DME IIF 109.50 MHz 18 nm / 33 km - - - 24 ft / 7 m (AMSL)

Popular Alternatives